sensor_id;sensor_type;location;lat;lon;timestamp;pressure;altitude;pressure_sealevel;temperature
16956;BMP180;8594;52.052;8.354;2024-02-14T00:00:07;100556.00;;;10.50
16956;BMP180;8594;52.052;8.354;2024-02-14T00:02:37;100545.00;;;10.70
16956;BMP180;8594;52.052;8.354;2024-02-14T00:05:05;100551.00;;;10.80
16956;BMP180;8594;52.052;8.354;2024-02-14T00:07:32;100546.00;;;10.60
16956;BMP180;8594;52.052;8.354;2024-02-14T00:09:59;100540.00;;;10.70
16956;BMP180;8594;52.052;8.354;2024-02-14T00:12:27;100544.00;;;10.50
16956;BMP180;8594;52.052;8.354;2024-02-14T00:14:54;100536.00;;;10.70
16956;BMP180;8594;52.052;8.354;2024-02-14T00:17:20;100529.00;;;10.80
16956;BMP180;8594;52.052;8.354;2024-02-14T00:19:47;100527.00;;;10.80
16956;BMP180;8594;52.052;8.354;2024-02-14T00:22:14;100540.00;;;10.70
16956;BMP180;8594;52.052;8.354;2024-02-14T00:24:42;100526.00;;;10.70
16956;BMP180;8594;52.052;8.354;2024-02-14T00:27:08;100525.00;;;10.90
16956;BMP180;8594;52.052;8.354;2024-02-14T00:29:37;100526.00;;;10.70
16956;BMP180;8594;52.052;8.354;2024-02-14T00:32:04;100524.00;;;10.90
16956;BMP180;8594;52.052;8.354;2024-02-14T00:34:31;100531.00;;;10.90
16956;BMP180;8594;52.052;8.354;2024-02-14T00:36:58;100525.00;;;10.80
16956;BMP180;8594;52.052;8.354;2024-02-14T00:39:24;100524.00;;;10.60
16956;BMP180;8594;52.052;8.354;2024-02-14T00:41:51;100510.00;;;10.80
16956;BMP180;8594;52.052;8.354;2024-02-14T00:44:18;100505.00;;;11.00
16956;BMP180;8594;52.052;8.354;2024-02-14T00:46:46;100509.00;;;10.80
16956;BMP180;8594;52.052;8.354;2024-02-14T00:49:14;100505.00;;;11.10
16956;BMP180;8594;52.052;8.354;2024-02-14T00:51:40;100505.00;;;11.20
16956;BMP180;8594;52.052;8.354;2024-02-14T00:54:07;100508.00;;;11.20
16956;BMP180;8594;52.052;8.354;2024-02-14T00:56:34;100494.00;;;11.10
16956;BMP180;8594;52.052;8.354;2024-02-14T00:59:01;100491.00;;;11.10
16956;BMP180;8594;52.052;8.354;2024-02-14T01:01:28;100491.00;;;11.10
16956;BMP180;8594;52.052;8.354;2024-02-14T01:03:56;100490.00;;;11.00
16956;BMP180;8594;52.052;8.354;2024-02-14T01:06:22;100484.00;;;10.80
16956;BMP180;8594;52.052;8.354;2024-02-14T01:08:50;100480.00;;;11.00
16956;BMP180;8594;52.052;8.354;2024-02-14T01:11:17;100475.00;;;11.10
16956;BMP180;8594;52.052;8.354;2024-02-14T01:13:43;100483.00;;;11.20
16956;BMP180;8594;52.052;8.354;2024-02-14T01:16:10;100485.00;;;11.00
16956;BMP180;8594;52.052;8.354;2024-02-14T01:18:37;100479.00;;;11.20
16956;BMP180;8594;52.052;8.354;2024-02-14T01:21:05;100481.00;;;11.20
16956;BMP180;8594;52.052;8.354;2024-02-14T01:23:32;100474.00;;;11.30
16956;BMP180;8594;52.052;8.354;2024-02-14T01:25:59;100476.00;;;11.30
16956;BMP180;8594;52.052;8.354;2024-02-14T01:28:27;100476.00;;;11.70
16956;BMP180;8594;52.052;8.354;2024-02-14T01:30:54;100480.00;;;11.80
16956;BMP180;8594;52.052;8.354;2024-02-14T01:33:22;100470.00;;;11.20
16956;BMP180;8594;52.052;8.354;2024-02-14T01:35:49;100480.00;;;11.30
16956;BMP180;8594;52.052;8.354;2024-02-14T01:38:17;100476.00;;;11.30
16956;BMP180;8594;52.052;8.354;2024-02-14T01:40:44;100464.00;;;11.50
16956;BMP180;8594;52.052;8.354;2024-02-14T01:43:12;100466.00;;;11.40
16956;BMP180;8594;52.052;8.354;2024-02-14T01:45:40;100462.00;;;11.30
16956;BMP180;8594;52.052;8.354;2024-02-14T01:48:08;100457.00;;;11.20
16956;BMP180;8594;52.052;8.354;2024-02-14T01:50:36;100455.00;;;11.40
16956;BMP180;8594;52.052;8.354;2024-02-14T01:53:04;100447.00;;;11.30
16956;BMP180;8594;52.052;8.354;2024-02-14T01:55:32;100441.00;;;11.20
16956;BMP180;8594;52.052;8.354;2024-02-14T01:58:00;100438.00;;;11.10
16956;BMP180;8594;52.052;8.354;2024-02-14T02:00:29;100440.00;;;11.30
16956;BMP180;8594;52.052;8.354;2024-02-14T02:02:57;100442.00;;;11.40
16956;BMP180;8594;52.052;8.354;2024-02-14T02:05:24;100433.00;;;11.50
16956;BMP180;8594;52.052;8.354;2024-02-14T02:07:51;100437.00;;;11.30
16956;BMP180;8594;52.052;8.354;2024-02-14T02:10:19;100432.00;;;11.30
16956;BMP180;8594;52.052;8.354;2024-02-14T02:12:49;100426.00;;;11.30
16956;BMP180;8594;52.052;8.354;2024-02-14T02:15:16;100428.00;;;11.60
16956;BMP180;8594;52.052;8.354;2024-02-14T02:17:43;100427.00;;;11.60
16956;BMP180;8594;52.052;8.354;2024-02-14T02:20:11;100420.00;;;11.80
16956;BMP180;8594;52.052;8.354;2024-02-14T02:22:46;100423.00;;;11.30
16956;BMP180;8594;52.052;8.354;2024-02-14T02:25:14;100414.00;;;11.50
16956;BMP180;8594;52.052;8.354;2024-02-14T02:27:40;100414.00;;;11.60
16956;BMP180;8594;52.052;8.354;2024-02-14T02:30:07;100417.00;;;11.20
16956;BMP180;8594;52.052;8.354;2024-02-14T02:32:36;100418.00;;;11.40
16956;BMP180;8594;52.052;8.354;2024-02-14T02:35:04;100428.00;;;11.70
16956;BMP180;8594;52.052;8.354;2024-02-14T02:37:31;100413.00;;;11.60
16956;BMP180;8594;52.052;8.354;2024-02-14T02:39:59;100411.00;;;11.30
16956;BMP180;8594;52.052;8.354;2024-02-14T02:42:26;100406.00;;;11.10
16956;BMP180;8594;52.052;8.354;2024-02-14T02:44:52;100398.00;;;11.60
16956;BMP180;8594;52.052;8.354;2024-02-14T02:47:19;100400.00;;;11.60
16956;BMP180;8594;52.052;8.354;2024-02-14T02:49:46;100407.00;;;11.80
16956;BMP180;8594;52.052;8.354;2024-02-14T02:52:13;100403.00;;;11.80
16956;BMP180;8594;52.052;8.354;2024-02-14T02:54:40;100401.00;;;11.60
16956;BMP180;8594;52.052;8.354;2024-02-14T02:57:10;100398.00;;;11.90
16956;BMP180;8594;52.052;8.354;2024-02-14T02:59:37;100397.00;;;11.60
16956;BMP180;8594;52.052;8.354;2024-02-14T03:02:08;100395.00;;;11.70
16956;BMP180;8594;52.052;8.354;2024-02-14T03:04:37;100390.00;;;11.80
16956;BMP180;8594;52.052;8.354;2024-02-14T03:07:04;100382.00;;;11.90
16956;BMP180;8594;52.052;8.354;2024-02-14T03:09:33;100385.00;;;12.00
16956;BMP180;8594;52.052;8.354;2024-02-14T03:12:00;100392.00;;;11.80
16956;BMP180;8594;52.052;8.354;2024-02-14T03:14:30;100392.00;;;12.00
16956;BMP180;8594;52.052;8.354;2024-02-14T03:16:58;100394.00;;;11.70
16956;BMP180;8594;52.052;8.354;2024-02-14T03:19:25;100389.00;;;11.70
16956;BMP180;8594;52.052;8.354;2024-02-14T03:21:52;100389.00;;;11.80
16956;BMP180;8594;52.052;8.354;2024-02-14T03:24:19;100389.00;;;11.40
16956;BMP180;8594;52.052;8.354;2024-02-14T03:26:46;100388.00;;;11.80
16956;BMP180;8594;52.052;8.354;2024-02-14T03:29:13;100386.00;;;11.70
16956;BMP180;8594;52.052;8.354;2024-02-14T03:31:43;100391.00;;;11.60
16956;BMP180;8594;52.052;8.354;2024-02-14T03:34:10;100389.00;;;11.80
16956;BMP180;8594;52.052;8.354;2024-02-14T03:36:37;100388.00;;;12.00
16956;BMP180;8594;52.052;8.354;2024-02-14T03:39:04;100392.00;;;11.70
16956;BMP180;8594;52.052;8.354;2024-02-14T03:41:32;100391.00;;;11.80
16956;BMP180;8594;52.052;8.354;2024-02-14T03:43:59;100390.00;;;11.70
16956;BMP180;8594;52.052;8.354;2024-02-14T03:46:27;100391.00;;;11.70
16956;BMP180;8594;52.052;8.354;2024-02-14T03:48:55;100387.00;;;12.00
16956;BMP180;8594;52.052;8.354;2024-02-14T03:51:23;100387.00;;;12.00
16956;BMP180;8594;52.052;8.354;2024-02-14T03:53:50;100382.00;;;12.00
16956;BMP180;8594;52.052;8.354;2024-02-14T03:56:17;100398.00;;;11.70
16956;BMP180;8594;52.052;8.354;2024-02-14T03:58:44;100390.00;;;11.50
16956;BMP180;8594;52.052;8.354;2024-02-14T04:01:12;100393.00;;;11.70
16956;BMP180;8594;52.052;8.354;2024-02-14T04:03:39;100388.00;;;12.10
16956;BMP180;8594;52.052;8.354;2024-02-14T04:06:07;100388.00;;;11.90
16956;BMP180;8594;52.052;8.354;2024-02-14T04:08:34;100392.00;;;11.70
16956;BMP180;8594;52.052;8.354;2024-02-14T04:11:01;100385.00;;;11.50
16956;BMP180;8594;52.052;8.354;2024-02-14T04:13:27;100384.00;;;11.50
16956;BMP180;8594;52.052;8.354;2024-02-14T04:15:54;100386.00;;;11.70
16956;BMP180;8594;52.052;8.354;2024-02-14T04:18:21;100390.00;;;11.50
16956;BMP180;8594;52.052;8.354;2024-02-14T04:20:47;100381.00;;;11.40
16956;BMP180;8594;52.052;8.354;2024-02-14T04:23:15;100387.00;;;11.70
16956;BMP180;8594;52.052;8.354;2024-02-14T04:25:42;100380.00;;;11.30
16956;BMP180;8594;52.052;8.354;2024-02-14T04:28:09;100384.00;;;11.60
16956;BMP180;8594;52.052;8.354;2024-02-14T04:30:37;100371.00;;;11.50
16956;BMP180;8594;52.052;8.354;2024-02-14T04:33:04;100379.00;;;11.50
16956;BMP180;8594;52.052;8.354;2024-02-14T04:35:31;100377.00;;;11.40
16956;BMP180;8594;52.052;8.354;2024-02-14T04:37:59;100385.00;;;11.70
16956;BMP180;8594;52.052;8.354;2024-02-14T04:40:27;100382.00;;;11.60
16956;BMP180;8594;52.052;8.354;2024-02-14T04:42:54;100377.00;;;11.50
16956;BMP180;8594;52.052;8.354;2024-02-14T04:45:21;100378.00;;;11.20
16956;BMP180;8594;52.052;8.354;2024-02-14T04:47:48;100377.00;;;11.50
16956;BMP180;8594;52.052;8.354;2024-02-14T04:50:15;100374.00;;;11.70
16956;BMP180;8594;52.052;8.354;2024-02-14T04:52:42;100375.00;;;11.50
16956;BMP180;8594;52.052;8.354;2024-02-14T04:55:09;100364.00;;;11.40
16956;BMP180;8594;52.052;8.354;2024-02-14T04:57:38;100363.00;;;11.30
16956;BMP180;8594;52.052;8.354;2024-02-14T05:00:07;100377.00;;;11.00
16956;BMP180;8594;52.052;8.354;2024-02-14T05:02:35;100377.00;;;11.00
16956;BMP180;8594;52.052;8.354;2024-02-14T05:05:03;100386.00;;;11.60
16956;BMP180;8594;52.052;8.354;2024-02-14T05:07:29;100381.00;;;11.10
16956;BMP180;8594;52.052;8.354;2024-02-14T05:09:57;100385.00;;;11.40
16956;BMP180;8594;52.052;8.354;2024-02-14T05:12:24;100374.00;;;11.50
16956;BMP180;8594;52.052;8.354;2024-02-14T05:14:52;100384.00;;;11.60
16956;BMP180;8594;52.052;8.354;2024-02-14T05:17:18;100386.00;;;11.80
16956;BMP180;8594;52.052;8.354;2024-02-14T05:19:45;100388.00;;;11.70
16956;BMP180;8594;52.052;8.354;2024-02-14T05:22:12;100389.00;;;11.50
16956;BMP180;8594;52.052;8.354;2024-02-14T05:24:39;100393.00;;;11.60
16956;BMP180;8594;52.052;8.354;2024-02-14T05:27:06;100381.00;;;11.30
16956;BMP180;8594;52.052;8.354;2024-02-14T05:29:33;100395.00;;;11.70
16956;BMP180;8594;52.052;8.354;2024-02-14T05:32:01;100391.00;;;11.90
16956;BMP180;8594;52.052;8.354;2024-02-14T05:34:28;100391.00;;;11.50
16956;BMP180;8594;52.052;8.354;2024-02-14T05:36:54;100398.00;;;11.70
16956;BMP180;8594;52.052;8.354;2024-02-14T05:39:21;100393.00;;;11.40
16956;BMP180;8594;52.052;8.354;2024-02-14T05:41:48;100396.00;;;11.60
16956;BMP180;8594;52.052;8.354;2024-02-14T05:44:15;100395.00;;;11.70
16956;BMP180;8594;52.052;8.354;2024-02-14T05:46:42;100397.00;;;11.40
16956;BMP180;8594;52.052;8.354;2024-02-14T05:49:10;100398.00;;;11.40
16956;BMP180;8594;52.052;8.354;2024-02-14T05:51:36;100395.00;;;11.50
16956;BMP180;8594;52.052;8.354;2024-02-14T05:54:04;100405.00;;;11.50
16956;BMP180;8594;52.052;8.354;2024-02-14T05:56:30;100401.00;;;11.00
16956;BMP180;8594;52.052;8.354;2024-02-14T05:58:57;100401.00;;;11.30
16956;BMP180;8594;52.052;8.354;2024-02-14T06:01:24;100407.00;;;11.60
16956;BMP180;8594;52.052;8.354;2024-02-14T06:03:50;100410.00;;;11.60
16956;BMP180;8594;52.052;8.354;2024-02-14T06:06:18;100409.00;;;11.10
16956;BMP180;8594;52.052;8.354;2024-02-14T06:08:45;100408.00;;;11.60
16956;BMP180;8594;52.052;8.354;2024-02-14T06:11:13;100412.00;;;11.70
16956;BMP180;8594;52.052;8.354;2024-02-14T06:13:39;100416.00;;;11.40
16956;BMP180;8594;52.052;8.354;2024-02-14T06:16:06;100410.00;;;11.60
16956;BMP180;8594;52.052;8.354;2024-02-14T06:18:34;100413.00;;;11.40
16956;BMP180;8594;52.052;8.354;2024-02-14T06:21:01;100422.00;;;11.30
16956;BMP180;8594;52.052;8.354;2024-02-14T06:23:29;100420.00;;;11.40
16956;BMP180;8594;52.052;8.354;2024-02-14T06:25:57;100409.00;;;11.30
16956;BMP180;8594;52.052;8.354;2024-02-14T06:28:24;100414.00;;;11.40
16956;BMP180;8594;52.052;8.354;2024-02-14T06:30:51;100419.00;;;11.50
16956;BMP180;8594;52.052;8.354;2024-02-14T06:33:17;100425.00;;;11.30
16956;BMP180;8594;52.052;8.354;2024-02-14T06:35:44;100417.00;;;11.70
16956;BMP180;8594;52.052;8.354;2024-02-14T06:38:11;100424.00;;;11.60
16956;BMP180;8594;52.052;8.354;2024-02-14T06:40:39;100434.00;;;11.90
16956;BMP180;8594;52.052;8.354;2024-02-14T06:43:06;100442.00;;;11.80
16956;BMP180;8594;52.052;8.354;2024-02-14T06:45:33;100431.00;;;11.40
16956;BMP180;8594;52.052;8.354;2024-02-14T06:47:59;100439.00;;;11.70
16956;BMP180;8594;52.052;8.354;2024-02-14T06:50:26;100443.00;;;11.40
16956;BMP180;8594;52.052;8.354;2024-02-14T06:52:54;100450.00;;;11.50
16956;BMP180;8594;52.052;8.354;2024-02-14T06:55:25;100445.00;;;11.60
16956;BMP180;8594;52.052;8.354;2024-02-14T06:57:53;100448.00;;;11.90
16956;BMP180;8594;52.052;8.354;2024-02-14T07:00:20;100451.00;;;11.80
16956;BMP180;8594;52.052;8.354;2024-02-14T07:02:47;100453.00;;;11.90
16956;BMP180;8594;52.052;8.354;2024-02-14T07:05:14;100458.00;;;11.90
16956;BMP180;8594;52.052;8.354;2024-02-14T07:07:41;100460.00;;;11.80
16956;BMP180;8594;52.052;8.354;2024-02-14T07:10:09;100449.00;;;11.50
16956;BMP180;8594;52.052;8.354;2024-02-14T07:12:36;100464.00;;;11.70
16956;BMP180;8594;52.052;8.354;2024-02-14T07:15:06;100469.00;;;11.70
16956;BMP180;8594;52.052;8.354;2024-02-14T07:17:34;100466.00;;;12.00
16956;BMP180;8594;52.052;8.354;2024-02-14T07:20:01;100467.00;;;11.80
16956;BMP180;8594;52.052;8.354;2024-02-14T07:22:28;100463.00;;;11.90
16956;BMP180;8594;52.052;8.354;2024-02-14T07:24:56;100465.00;;;11.90
16956;BMP180;8594;52.052;8.354;2024-02-14T07:27:23;100474.00;;;11.70
16956;BMP180;8594;52.052;8.354;2024-02-14T07:29:50;100483.00;;;11.90
16956;BMP180;8594;52.052;8.354;2024-02-14T07:32:18;100478.00;;;11.90
16956;BMP180;8594;52.052;8.354;2024-02-14T07:34:45;100481.00;;;12.00
16956;BMP180;8594;52.052;8.354;2024-02-14T07:37:12;100486.00;;;11.90
16956;BMP180;8594;52.052;8.354;2024-02-14T07:39:40;100480.00;;;11.70
16956;BMP180;8594;52.052;8.354;2024-02-14T07:42:07;100489.00;;;11.70
16956;BMP180;8594;52.052;8.354;2024-02-14T07:44:33;100496.00;;;11.70
16956;BMP180;8594;52.052;8.354;2024-02-14T07:47:01;100496.00;;;11.90
16956;BMP180;8594;52.052;8.354;2024-02-14T07:49:30;100495.00;;;11.80
16956;BMP180;8594;52.052;8.354;2024-02-14T07:51:56;100494.00;;;12.10
16956;BMP180;8594;52.052;8.354;2024-02-14T07:54:23;100502.00;;;12.00
16956;BMP180;8594;52.052;8.354;2024-02-14T07:56:50;100507.00;;;12.10
16956;BMP180;8594;52.052;8.354;2024-02-14T07:59:16;100510.00;;;11.90
16956;BMP180;8594;52.052;8.354;2024-02-14T08:01:43;100499.00;;;12.00
16956;BMP180;8594;52.052;8.354;2024-02-14T08:04:10;100515.00;;;12.20
16956;BMP180;8594;52.052;8.354;2024-02-14T08:06:38;100505.00;;;12.30
16956;BMP180;8594;52.052;8.354;2024-02-14T08:09:04;100516.00;;;12.20
16956;BMP180;8594;52.052;8.354;2024-02-14T08:11:35;100517.00;;;12.20
16956;BMP180;8594;52.052;8.354;2024-02-14T08:14:02;100515.00;;;11.90
16956;BMP180;8594;52.052;8.354;2024-02-14T08:16:28;100516.00;;;11.70
16956;BMP180;8594;52.052;8.354;2024-02-14T08:18:55;100514.00;;;12.00
16956;BMP180;8594;52.052;8.354;2024-02-14T08:21:24;100526.00;;;12.20
16956;BMP180;8594;52.052;8.354;2024-02-14T08:23:53;100523.00;;;12.10
16956;BMP180;8594;52.052;8.354;2024-02-14T08:26:20;100509.00;;;11.90
16956;BMP180;8594;52.052;8.354;2024-02-14T08:28:48;100525.00;;;12.20
16956;BMP180;8594;52.052;8.354;2024-02-14T08:31:15;100527.00;;;12.10
16956;BMP180;8594;52.052;8.354;2024-02-14T08:33:42;100522.00;;;12.00
16956;BMP180;8594;52.052;8.354;2024-02-14T08:36:09;100526.00;;;11.60
16956;BMP180;8594;52.052;8.354;2024-02-14T08:38:36;100531.00;;;11.90
16956;BMP180;8594;52.052;8.354;2024-02-14T08:41:05;100522.00;;;11.80
16956;BMP180;8594;52.052;8.354;2024-02-14T08:43:33;100532.00;;;12.10
16956;BMP180;8594;52.052;8.354;2024-02-14T08:46:00;100522.00;;;11.90
16956;BMP180;8594;52.052;8.354;2024-02-14T08:48:27;100529.00;;;12.30
16956;BMP180;8594;52.052;8.354;2024-02-14T08:50:58;100531.00;;;12.00
16956;BMP180;8594;52.052;8.354;2024-02-14T08:53:25;100531.00;;;11.90
16956;BMP180;8594;52.052;8.354;2024-02-14T08:55:52;100529.00;;;12.20
16956;BMP180;8594;52.052;8.354;2024-02-14T08:58:21;100537.00;;;12.30
16956;BMP180;8594;52.052;8.354;2024-02-14T09:00:49;100539.00;;;12.20
16956;BMP180;8594;52.052;8.354;2024-02-14T09:03:18;100545.00;;;12.30
16956;BMP180;8594;52.052;8.354;2024-02-14T09:05:45;100541.00;;;12.40
16956;BMP180;8594;52.052;8.354;2024-02-14T09:08:12;100534.00;;;12.20
16956;BMP180;8594;52.052;8.354;2024-02-14T09:10:38;100544.00;;;12.60
16956;BMP180;8594;52.052;8.354;2024-02-14T09:13:05;100549.00;;;12.70
16956;BMP180;8594;52.052;8.354;2024-02-14T09:15:34;100540.00;;;12.40
16956;BMP180;8594;52.052;8.354;2024-02-14T09:18:01;100547.00;;;12.50
16956;BMP180;8594;52.052;8.354;2024-02-14T09:20:28;100539.00;;;12.30
16956;BMP180;8594;52.052;8.354;2024-02-14T09:22:55;100544.00;;;12.50
16956;BMP180;8594;52.052;8.354;2024-02-14T09:25:23;100542.00;;;11.90
16956;BMP180;8594;52.052;8.354;2024-02-14T09:27:50;100553.00;;;12.20
16956;BMP180;8594;52.052;8.354;2024-02-14T09:30:18;100551.00;;;12.50
16956;BMP180;8594;52.052;8.354;2024-02-14T09:32:46;100552.00;;;12.80
16956;BMP180;8594;52.052;8.354;2024-02-14T09:35:16;100546.00;;;12.60
16956;BMP180;8594;52.052;8.354;2024-02-14T09:37:43;100546.00;;;12.40
16956;BMP180;8594;52.052;8.354;2024-02-14T09:40:10;100545.00;;;12.10
16956;BMP180;8594;52.052;8.354;2024-02-14T09:42:43;100555.00;;;12.40
16956;BMP180;8594;52.052;8.354;2024-02-14T09:45:12;100545.00;;;12.10
16956;BMP180;8594;52.052;8.354;2024-02-14T09:47:40;100556.00;;;12.30
16956;BMP180;8594;52.052;8.354;2024-02-14T09:50:10;100557.00;;;12.60
16956;BMP180;8594;52.052;8.354;2024-02-14T09:52:38;100547.00;;;12.30
16956;BMP180;8594;52.052;8.354;2024-02-14T09:55:06;100560.00;;;12.30
16956;BMP180;8594;52.052;8.354;2024-02-14T09:57:41;100557.00;;;12.40
16956;BMP180;8594;52.052;8.354;2024-02-14T10:00:10;100556.00;;;12.50
16956;BMP180;8594;52.052;8.354;2024-02-14T10:02:38;100562.00;;;12.40
16956;BMP180;8594;52.052;8.354;2024-02-14T10:05:05;100565.00;;;12.50
16956;BMP180;8594;52.052;8.354;2024-02-14T10:07:41;100566.00;;;12.70
16956;BMP180;8594;52.052;8.354;2024-02-14T10:10:08;100574.00;;;12.70
16956;BMP180;8594;52.052;8.354;2024-02-14T10:12:35;100575.00;;;12.70
16956;BMP180;8594;52.052;8.354;2024-02-14T10:15:03;100571.00;;;12.90
16956;BMP180;8594;52.052;8.354;2024-02-14T10:17:32;100578.00;;;13.10
16956;BMP180;8594;52.052;8.354;2024-02-14T10:20:01;100574.00;;;12.80
16956;BMP180;8594;52.052;8.354;2024-02-14T10:22:33;100573.00;;;12.80
16956;BMP180;8594;52.052;8.354;2024-02-14T10:25:02;100578.00;;;12.50
16956;BMP180;8594;52.052;8.354;2024-02-14T10:27:30;100579.00;;;12.70
16956;BMP180;8594;52.052;8.354;2024-02-14T10:29:59;100575.00;;;12.40
16956;BMP180;8594;52.052;8.354;2024-02-14T10:32:25;100586.00;;;12.90
16956;BMP180;8594;52.052;8.354;2024-02-14T10:34:53;100583.00;;;12.60
16956;BMP180;8594;52.052;8.354;2024-02-14T10:37:21;100598.00;;;13.00
16956;BMP180;8594;52.052;8.354;2024-02-14T10:39:51;100588.00;;;13.10
16956;BMP180;8594;52.052;8.354;2024-02-14T10:42:21;100590.00;;;13.10
16956;BMP180;8594;52.052;8.354;2024-02-14T10:44:48;100597.00;;;13.10
16956;BMP180;8594;52.052;8.354;2024-02-14T10:47:20;100592.00;;;13.10
16956;BMP180;8594;52.052;8.354;2024-02-14T10:49:49;100591.00;;;13.30
16956;BMP180;8594;52.052;8.354;2024-02-14T10:52:18;100595.00;;;13.00
16956;BMP180;8594;52.052;8.354;2024-02-14T10:54:54;100594.00;;;12.80
16956;BMP180;8594;52.052;8.354;2024-02-14T10:57:24;100598.00;;;12.90
16956;BMP180;8594;52.052;8.354;2024-02-14T10:59:52;100600.00;;;13.10
16956;BMP180;8594;52.052;8.354;2024-02-14T11:02:20;100599.00;;;12.90
16956;BMP180;8594;52.052;8.354;2024-02-14T11:04:48;100600.00;;;13.30
16956;BMP180;8594;52.052;8.354;2024-02-14T11:07:19;100598.00;;;13.40
16956;BMP180;8594;52.052;8.354;2024-02-14T11:09:48;100592.00;;;13.50
16956;BMP180;8594;52.052;8.354;2024-02-14T11:12:15;100596.00;;;13.00
16956;BMP180;8594;52.052;8.354;2024-02-14T11:14:43;100591.00;;;13.30
16956;BMP180;8594;52.052;8.354;2024-02-14T11:17:12;100593.00;;;13.00
16956;BMP180;8594;52.052;8.354;2024-02-14T11:19:39;100596.00;;;13.50
16956;BMP180;8594;52.052;8.354;2024-02-14T11:22:17;100598.00;;;13.50
16956;BMP180;8594;52.052;8.354;2024-02-14T11:24:46;100596.00;;;13.50
16956;BMP180;8594;52.052;8.354;2024-02-14T11:27:14;100583.00;;;13.60
16956;BMP180;8594;52.052;8.354;2024-02-14T11:29:52;100594.00;;;13.40
16956;BMP180;8594;52.052;8.354;2024-02-14T11:32:19;100607.00;;;13.20
16956;BMP180;8594;52.052;8.354;2024-02-14T11:34:54;100610.00;;;13.50
16956;BMP180;8594;52.052;8.354;2024-02-14T11:37:27;100608.00;;;13.60
16956;BMP180;8594;52.052;8.354;2024-02-14T11:39:54;100612.00;;;13.80
16956;BMP180;8594;52.052;8.354;2024-02-14T11:42:22;100613.00;;;13.10
16956;BMP180;8594;52.052;8.354;2024-02-14T11:44:48;100611.00;;;13.40
16956;BMP180;8594;52.052;8.354;2024-02-14T11:47:17;100615.00;;;13.40
16956;BMP180;8594;52.052;8.354;2024-02-14T11:49:44;100611.00;;;13.30
16956;BMP180;8594;52.052;8.354;2024-02-14T11:52:12;100618.00;;;13.50
16956;BMP180;8594;52.052;8.354;2024-02-14T11:54:39;100617.00;;;13.40
16956;BMP180;8594;52.052;8.354;2024-02-14T11:57:06;100604.00;;;13.30
16956;BMP180;8594;52.052;8.354;2024-02-14T11:59:34;100615.00;;;13.20
16956;BMP180;8594;52.052;8.354;2024-02-14T12:02:02;100612.00;;;12.90
16956;BMP180;8594;52.052;8.354;2024-02-14T12:04:31;100614.00;;;13.00
16956;BMP180;8594;52.052;8.354;2024-02-14T12:06:59;100614.00;;;13.30
16956;BMP180;8594;52.052;8.354;2024-02-14T12:09:26;100615.00;;;13.40
16956;BMP180;8594;52.052;8.354;2024-02-14T12:11:53;100604.00;;;13.00
16956;BMP180;8594;52.052;8.354;2024-02-14T12:14:22;100615.00;;;13.30
16956;BMP180;8594;52.052;8.354;2024-02-14T12:16:50;100609.00;;;13.10
16956;BMP180;8594;52.052;8.354;2024-02-14T12:19:17;100621.00;;;13.40
16956;BMP180;8594;52.052;8.354;2024-02-14T12:21:46;100621.00;;;13.30
16956;BMP180;8594;52.052;8.354;2024-02-14T12:24:14;100606.00;;;13.10
16956;BMP180;8594;52.052;8.354;2024-02-14T12:26:42;100623.00;;;13.60
16956;BMP180;8594;52.052;8.354;2024-02-14T12:29:12;100617.00;;;13.20
16956;BMP180;8594;52.052;8.354;2024-02-14T12:31:39;100627.00;;;13.50
16956;BMP180;8594;52.052;8.354;2024-02-14T12:34:11;100617.00;;;13.60
16956;BMP180;8594;52.052;8.354;2024-02-14T12:36:38;100611.00;;;13.60
16956;BMP180;8594;52.052;8.354;2024-02-14T12:39:06;100621.00;;;13.40
16956;BMP180;8594;52.052;8.354;2024-02-14T12:41:35;100612.00;;;13.50
16956;BMP180;8594;52.052;8.354;2024-02-14T12:44:05;100623.00;;;13.50
16956;BMP180;8594;52.052;8.354;2024-02-14T12:46:31;100615.00;;;13.30
16956;BMP180;8594;52.052;8.354;2024-02-14T12:48:59;100619.00;;;13.10
16956;BMP180;8594;52.052;8.354;2024-02-14T12:51:26;100608.00;;;13.00
16956;BMP180;8594;52.052;8.354;2024-02-14T12:53:54;100612.00;;;13.20
16956;BMP180;8594;52.052;8.354;2024-02-14T12:56:22;100610.00;;;13.60
16956;BMP180;8594;52.052;8.354;2024-02-14T12:58:50;100613.00;;;13.60
16956;BMP180;8594;52.052;8.354;2024-02-14T13:01:17;100616.00;;;13.40
16956;BMP180;8594;52.052;8.354;2024-02-14T13:03:44;100613.00;;;13.60
16956;BMP180;8594;52.052;8.354;2024-02-14T13:06:11;100613.00;;;13.70
16956;BMP180;8594;52.052;8.354;2024-02-14T13:08:39;100611.00;;;13.50
16956;BMP180;8594;52.052;8.354;2024-02-14T13:11:06;100607.00;;;13.60
16956;BMP180;8594;52.052;8.354;2024-02-14T13:13:36;100614.00;;;13.80
16956;BMP180;8594;52.052;8.354;2024-02-14T13:16:03;100618.00;;;13.70
16956;BMP180;8594;52.052;8.354;2024-02-14T13:18:31;100626.00;;;13.30
16956;BMP180;8594;52.052;8.354;2024-02-14T13:20:58;100619.00;;;13.60
16956;BMP180;8594;52.052;8.354;2024-02-14T13:23:25;100608.00;;;13.70
16956;BMP180;8594;52.052;8.354;2024-02-14T13:25:52;100609.00;;;13.60
16956;BMP180;8594;52.052;8.354;2024-02-14T13:28:18;100598.00;;;13.40
16956;BMP180;8594;52.052;8.354;2024-02-14T13:30:46;100597.00;;;13.60
16956;BMP180;8594;52.052;8.354;2024-02-14T13:33:13;100607.00;;;13.90
16956;BMP180;8594;52.052;8.354;2024-02-14T13:35:40;100604.00;;;14.00
16956;BMP180;8594;52.052;8.354;2024-02-14T13:38:07;100611.00;;;14.20
16956;BMP180;8594;52.052;8.354;2024-02-14T13:40:35;100616.00;;;14.00
16956;BMP180;8594;52.052;8.354;2024-02-14T13:43:02;100610.00;;;14.10
16956;BMP180;8594;52.052;8.354;2024-02-14T13:45:41;100600.00;;;14.30
16956;BMP180;8594;52.052;8.354;2024-02-14T13:48:10;100601.00;;;14.00
16956;BMP180;8594;52.052;8.354;2024-02-14T13:50:38;100602.00;;;13.70
16956;BMP180;8594;52.052;8.354;2024-02-14T13:53:06;100600.00;;;13.70
16956;BMP180;8594;52.052;8.354;2024-02-14T13:55:33;100595.00;;;14.20
16956;BMP180;8594;52.052;8.354;2024-02-14T13:58:00;100595.00;;;14.30
16956;BMP180;8594;52.052;8.354;2024-02-14T14:00:27;100600.00;;;14.40
16956;BMP180;8594;52.052;8.354;2024-02-14T14:02:54;100603.00;;;14.60
16956;BMP180;8594;52.052;8.354;2024-02-14T14:05:22;100606.00;;;14.20
16956;BMP180;8594;52.052;8.354;2024-02-14T14:07:49;100593.00;;;14.50
16956;BMP180;8594;52.052;8.354;2024-02-14T14:10:16;100589.00;;;14.10